createdAt,value
2023-02-15T00:00:12.356Z,2.20
2023-02-15T00:02:40.916Z,2.20
2023-02-15T00:05:10.187Z,2.20
2023-02-15T00:07:39.760Z,2.30
2023-02-15T00:10:09.159Z,2.30
2023-02-15T00:12:37.401Z,2.30
2023-02-15T00:15:08.241Z,2.30
2023-02-15T00:17:36.348Z,2.40
2023-02-15T00:20:04.572Z,2.40
2023-02-15T00:22:32.716Z,2.40
2023-02-15T00:25:02.221Z,2.50
2023-02-15T00:27:30.339Z,2.50
2023-02-15T00:29:58.510Z,2.40
2023-02-15T00:32:26.618Z,2.40
2023-02-15T00:34:54.746Z,2.40
2023-02-15T00:38:17.927Z,2.40
2023-02-15T00:40:54.728Z,2.40
2023-02-15T00:43:23.139Z,2.40
2023-02-15T00:45:51.535Z,2.50
2023-02-15T00:48:19.880Z,2.50
2023-02-15T00:50:48.140Z,2.60
2023-02-15T00:53:16.213Z,2.50
2023-02-15T00:55:44.280Z,2.50
2023-02-15T00:58:14.581Z,2.40
2023-02-15T01:00:45.260Z,2.50
2023-02-15T01:03:15.158Z,2.40
2023-02-15T01:05:43.201Z,2.50
2023-02-15T01:08:11.537Z,2.40
2023-02-15T01:10:39.597Z,2.40
2023-02-15T01:13:08.030Z,2.40
2023-02-15T01:15:38.295Z,2.40
2023-02-15T01:18:06.543Z,2.40
2023-02-15T01:20:37.640Z,2.40
2023-02-15T01:23:05.772Z,2.40
2023-02-15T01:25:35.930Z,2.40
2023-02-15T01:28:04.647Z,2.50
2023-02-15T01:30:32.839Z,2.50
2023-02-15T01:33:02.827Z,2.50
2023-02-15T01:35:31.068Z,2.50
2023-02-15T01:37:59.456Z,2.50
2023-02-15T01:40:27.562Z,2.40
2023-02-15T01:42:56.804Z,2.40
2023-02-15T01:45:28.001Z,2.40
2023-02-15T01:48:02.972Z,2.40
2023-02-15T01:50:35.466Z,2.40
2023-02-15T01:53:11.298Z,2.50
2023-02-15T01:55:43.330Z,2.50
2023-02-15T01:58:12.165Z,2.50
2023-02-15T02:00:40.311Z,2.60
2023-02-15T02:03:08.925Z,2.50
2023-02-15T02:05:39.923Z,2.50
2023-02-15T02:08:10.636Z,2.40
2023-02-15T02:10:39.065Z,2.50
2023-02-15T02:13:09.177Z,2.50
2023-02-15T02:15:47.128Z,2.50
2023-02-15T02:18:28.233Z,2.50
2023-02-15T02:21:24.708Z,2.50
2023-02-15T02:24:13.744Z,2.50
2023-02-15T02:27:14.912Z,2.50
2023-02-15T02:30:28.979Z,2.50
2023-02-15T02:33:38.535Z,2.50
2023-02-15T02:36:23.010Z,2.50
2023-02-15T02:39:06.042Z,2.50
2023-02-15T02:41:39.269Z,2.60
2023-02-15T02:44:15.266Z,2.70
2023-02-15T02:46:51.112Z,2.70
2023-02-15T02:49:19.305Z,2.70
2023-02-15T02:51:48.836Z,2.60
2023-02-15T02:54:16.998Z,2.60
2023-02-15T02:56:49.601Z,2.60
2023-02-15T02:59:22.926Z,2.60
2023-02-15T03:01:56.992Z,2.70
2023-02-15T03:04:30.901Z,2.70
2023-02-15T03:07:05.254Z,2.70
2023-02-15T03:09:42.658Z,2.80
2023-02-15T03:12:13.404Z,2.70
2023-02-15T03:14:42.769Z,2.70
2023-02-15T03:17:13.947Z,2.60
2023-02-15T03:19:45.017Z,2.60
2023-02-15T03:22:20.398Z,2.60
2023-02-15T03:24:56.142Z,2.60
2023-02-15T03:27:26.697Z,2.70
2023-02-15T03:29:58.391Z,2.80
2023-02-15T03:32:30.033Z,2.80
2023-02-15T03:34:58.472Z,2.70
2023-02-15T03:37:34.341Z,2.70
2023-02-15T03:40:26.868Z,2.70
2023-02-15T03:43:02.841Z,2.70
2023-02-15T03:45:33.631Z,2.70
2023-02-15T03:48:03.873Z,2.80
2023-02-15T03:50:51.505Z,2.80
2023-02-15T03:53:24.572Z,2.80
2023-02-15T03:55:56.791Z,2.90
2023-02-15T03:58:42.516Z,2.80
2023-02-15T04:01:35.661Z,2.40
2023-02-15T04:04:07.828Z,2.70
2023-02-15T04:06:35.934Z,2.70
2023-02-15T04:09:22.801Z,2.70
2023-02-15T04:11:50.881Z,2.70
2023-02-15T04:14:36.104Z,2.60
2023-02-15T04:17:07.610Z,2.60
2023-02-15T04:19:53.198Z,2.70
2023-02-15T04:22:38.533Z,2.70
2023-02-15T04:25:11.416Z,2.70
2023-02-15T04:27:40.014Z,2.70
2023-02-15T04:30:09.322Z,2.70
2023-02-15T04:32:38.530Z,2.70
2023-02-15T04:35:07.894Z,2.80
2023-02-15T04:37:36.012Z,2.70
2023-02-15T04:40:04.488Z,2.70
2023-02-15T04:42:34.162Z,2.60
2023-02-15T04:45:02.366Z,2.70
2023-02-15T04:47:30.493Z,2.70
2023-02-15T04:49:58.628Z,2.60
2023-02-15T04:52:27.121Z,2.70
2023-02-15T04:54:55.294Z,2.70
2023-02-15T04:57:23.428Z,2.80
2023-02-15T04:59:58.202Z,2.70
2023-02-15T05:02:26.297Z,2.70
2023-02-15T05:04:54.376Z,2.70
2023-02-15T05:07:22.580Z,2.70
2023-02-15T05:09:50.773Z,2.70
2023-02-15T05:12:18.884Z,2.70
2023-02-15T05:14:47.025Z,2.80
2023-02-15T05:17:16.559Z,2.70
2023-02-15T05:19:44.651Z,2.80
2023-02-15T05:22:12.848Z,2.70
2023-02-15T05:25:06.608Z,2.70
2023-02-15T05:27:52.067Z,2.80
2023-02-15T05:30:20.474Z,2.80
2023-02-15T05:32:50.116Z,2.80
2023-02-15T05:35:18.624Z,2.70
2023-02-15T05:37:46.720Z,2.80
2023-02-15T05:40:14.931Z,2.80
2023-02-15T05:42:43.050Z,2.80
2023-02-15T05:45:11.525Z,2.80
2023-02-15T05:47:39.669Z,2.80
2023-02-15T05:50:10.993Z,2.80
2023-02-15T05:52:39.362Z,2.80
2023-02-15T05:55:09.768Z,2.80
2023-02-15T05:57:38.177Z,2.80
2023-02-15T06:00:07.309Z,2.70
2023-02-15T06:02:36.513Z,2.70
2023-02-15T06:05:05.777Z,2.80
2023-02-15T06:07:35.282Z,2.80
2023-02-15T06:10:03.557Z,2.80
2023-02-15T06:12:31.675Z,2.80
2023-02-15T06:14:59.835Z,2.70
2023-02-15T06:17:27.932Z,2.80
2023-02-15T06:19:55.998Z,2.80
2023-02-15T06:22:24.373Z,2.80
2023-02-15T06:24:53.882Z,2.80
2023-02-15T06:27:22.025Z,2.80
2023-02-15T06:29:50.387Z,2.80
2023-02-15T06:32:18.571Z,2.80
2023-02-15T06:34:48.552Z,2.80
2023-02-15T06:37:16.951Z,2.80
2023-02-15T06:39:45.371Z,2.70
2023-02-15T06:42:14.887Z,2.70
2023-02-15T06:44:42.970Z,2.80
2023-02-15T06:47:11.742Z,2.80
2023-02-15T06:49:40.304Z,2.80
2023-02-15T06:52:08.726Z,2.70
2023-02-15T06:54:36.860Z,2.70
2023-02-15T06:57:05.127Z,2.80
2023-02-15T06:59:34.648Z,2.80
2023-02-15T07:02:02.833Z,2.70
2023-02-15T07:04:31.077Z,2.70
2023-02-15T07:06:59.286Z,2.70
2023-02-15T07:09:27.777Z,2.70
2023-02-15T07:12:13.434Z,2.70
2023-02-15T07:14:43.041Z,2.80
2023-02-15T07:17:32.629Z,2.80
2023-02-15T07:20:00.109Z,2.80
2023-02-15T07:22:28.663Z,2.80
2023-02-15T07:24:56.830Z,2.90
2023-02-15T07:27:24.992Z,2.80
2023-02-15T07:29:54.535Z,2.80
2023-02-15T07:32:23.043Z,2.80
2023-02-15T07:34:51.185Z,2.80
2023-02-15T07:37:19.297Z,2.80
2023-02-15T07:39:47.411Z,2.90
2023-02-15T07:42:15.532Z,2.90
2023-02-15T07:44:43.908Z,2.80
2023-02-15T07:47:14.098Z,2.80
2023-02-15T07:49:42.315Z,2.90
2023-02-15T07:52:10.512Z,2.90
2023-02-15T07:54:38.624Z,2.80
2023-02-15T07:57:06.973Z,2.90
2023-02-15T07:59:35.144Z,3.00
2023-02-15T08:02:03.432Z,2.80
2023-02-15T08:04:32.935Z,2.90
2023-02-15T08:07:01.067Z,2.90
2023-02-15T08:09:29.221Z,2.90
2023-02-15T08:11:57.354Z,2.90
2023-02-15T08:14:25.523Z,2.90
2023-02-15T08:16:55.858Z,2.80
2023-02-15T08:19:25.760Z,2.90
2023-02-15T08:21:57.834Z,3.00
2023-02-15T08:24:28.341Z,3.00
2023-02-15T08:26:56.830Z,2.90
2023-02-15T08:29:27.523Z,2.90
2023-02-15T08:31:59.734Z,2.80
2023-02-15T08:34:28.171Z,2.70
2023-02-15T08:36:57.793Z,2.80
2023-02-15T08:39:26.066Z,2.90
2023-02-15T08:41:54.259Z,2.90
2023-02-15T08:44:23.499Z,2.80
2023-02-15T08:46:53.757Z,2.90
2023-02-15T08:49:23.601Z,2.90
2023-02-15T08:51:52.213Z,3.00
2023-02-15T08:54:23.284Z,3.10
2023-02-15T08:56:51.550Z,3.00
2023-02-15T08:59:21.689Z,3.00
2023-02-15T09:01:52.128Z,3.10
2023-02-15T09:04:20.530Z,3.10
2023-02-15T09:06:50.951Z,3.10
2023-02-15T09:09:19.823Z,3.00
2023-02-15T09:11:55.347Z,3.00
2023-02-15T09:14:27.726Z,3.10
2023-02-15T09:16:56.607Z,3.20
2023-02-15T09:19:25.614Z,3.20
2023-02-15T09:21:53.782Z,3.20
2023-02-15T09:24:22.098Z,3.10
2023-02-15T09:26:51.775Z,3.10
2023-02-15T09:29:21.789Z,3.20
2023-02-15T09:31:51.645Z,3.20
2023-02-15T09:34:22.202Z,3.00
2023-02-15T09:36:51.987Z,2.90
2023-02-15T09:39:22.127Z,3.00
2023-02-15T09:42:21.321Z,2.80
2023-02-15T09:45:20.625Z,2.90
2023-02-15T09:48:13.388Z,2.80
2023-02-15T09:50:54.304Z,2.90
2023-02-15T09:53:35.760Z,2.70
2023-02-15T09:56:12.438Z,2.80
2023-02-15T09:58:51.316Z,2.80
2023-02-15T10:01:30.734Z,2.90
2023-02-15T10:04:19.886Z,3.00
2023-02-15T10:07:02.581Z,2.70
2023-02-15T10:09:48.300Z,3.00
2023-02-15T10:12:36.825Z,3.00
2023-02-15T10:15:41.000Z,3.10
2023-02-15T10:18:31.895Z,3.10
2023-02-15T10:21:06.738Z,3.20
2023-02-15T10:23:47.277Z,3.20
2023-02-15T10:26:20.586Z,3.20
2023-02-15T10:28:51.505Z,3.10
2023-02-15T10:31:29.337Z,3.10
2023-02-15T10:34:17.584Z,3.20
2023-02-15T10:37:12.417Z,3.10
2023-02-15T10:39:49.907Z,3.10
2023-02-15T10:42:30.647Z,3.10
2023-02-15T10:45:10.834Z,3.10
2023-02-15T10:47:59.178Z,3.20
2023-02-15T10:50:37.192Z,3.10
2023-02-15T10:53:26.780Z,3.10
2023-02-15T10:56:01.135Z,3.10
2023-02-15T10:58:42.303Z,3.00
2023-02-15T11:01:22.374Z,3.00
2023-02-15T11:04:10.261Z,2.90
2023-02-15T11:06:42.946Z,2.90
2023-02-15T11:09:13.854Z,3.00
2023-02-15T11:11:44.867Z,3.00
2023-02-15T11:14:21.284Z,2.90
2023-02-15T11:16:53.689Z,2.90
2023-02-15T11:19:26.330Z,2.90
2023-02-15T11:21:59.523Z,3.00
2023-02-15T11:24:30.692Z,2.90
2023-02-15T11:27:04.084Z,2.90
2023-02-15T11:29:36.842Z,2.90
2023-02-15T11:32:16.568Z,2.90
2023-02-15T11:34:52.509Z,2.80
2023-02-15T11:37:23.882Z,2.90
2023-02-15T11:39:55.669Z,2.80
2023-02-15T11:42:27.442Z,2.90
2023-02-15T11:45:01.844Z,2.80
2023-02-15T11:47:30.435Z,2.80
2023-02-15T11:50:00.213Z,2.90
2023-02-15T11:52:28.466Z,2.80
2023-02-15T11:54:56.825Z,2.80
2023-02-15T11:57:30.607Z,2.80
2023-02-15T12:00:05.000Z,2.80
2023-02-15T12:02:35.556Z,2.80
2023-02-15T12:05:11.490Z,2.80
2023-02-15T12:07:46.098Z,2.80
2023-02-15T12:10:22.656Z,2.80
2023-02-15T12:13:09.823Z,2.80
2023-02-15T12:15:39.346Z,2.90
2023-02-15T12:18:18.331Z,2.90
2023-02-15T12:20:48.418Z,3.00
2023-02-15T12:23:17.966Z,2.90
2023-02-15T12:25:54.523Z,2.90
2023-02-15T12:28:27.721Z,2.90
2023-02-15T12:30:56.885Z,2.90
2023-02-15T12:33:32.357Z,3.00
2023-02-15T12:36:05.765Z,3.00
2023-02-15T12:38:34.446Z,3.10
2023-02-15T12:41:04.530Z,3.00
2023-02-15T12:43:35.521Z,3.00
2023-02-15T12:46:23.224Z,3.10
2023-02-15T12:49:08.813Z,3.00
2023-02-15T12:51:52.570Z,3.10
2023-02-15T12:54:35.327Z,3.10
2023-02-15T12:57:28.727Z,3.10
2023-02-15T12:59:58.940Z,3.20
2023-02-15T13:02:30.561Z,3.20
2023-02-15T13:05:06.832Z,3.20
2023-02-15T13:07:36.385Z,3.20
2023-02-15T13:10:04.750Z,3.20
2023-02-15T13:12:34.604Z,3.20
2023-02-15T13:15:04.122Z,3.20
2023-02-15T13:17:35.473Z,3.20
2023-02-15T13:20:08.666Z,3.20
2023-02-15T13:22:43.999Z,3.20
2023-02-15T13:25:17.247Z,3.30
2023-02-15T13:27:47.854Z,3.30
2023-02-15T13:30:25.845Z,3.20
2023-02-15T13:33:00.735Z,3.30
2023-02-15T13:35:39.042Z,3.30
2023-02-15T13:38:23.411Z,3.30
2023-02-15T13:40:57.165Z,3.40
2023-02-15T13:43:44.412Z,3.40
2023-02-15T13:46:28.963Z,3.40
2023-02-15T13:49:11.566Z,3.40
2023-02-15T13:51:47.303Z,3.40
2023-02-15T13:54:38.676Z,3.40
2023-02-15T13:57:31.497Z,3.40
2023-02-15T14:00:10.665Z,3.40
2023-02-15T14:03:14.086Z,3.50
2023-02-15T14:06:07.430Z,3.50
2023-02-15T14:08:53.866Z,3.50
2023-02-15T14:11:29.917Z,3.50
2023-02-15T14:14:21.950Z,3.50
2023-02-15T14:17:07.188Z,3.50
2023-02-15T14:19:39.940Z,3.50
2023-02-15T14:22:15.360Z,3.50
2023-02-15T14:24:49.007Z,3.50
2023-02-15T14:27:29.136Z,3.50
2023-02-15T14:29:59.984Z,3.50
2023-02-15T14:32:36.480Z,3.50
2023-02-15T14:35:05.988Z,3.50
2023-02-15T14:37:44.020Z,3.60
2023-02-15T14:40:38.730Z,3.60
2023-02-15T14:43:17.674Z,3.50
2023-02-15T14:46:03.368Z,3.50
2023-02-15T14:48:35.443Z,3.50
2023-02-15T14:51:03.821Z,3.60
2023-02-15T14:53:40.295Z,3.50
2023-02-15T14:56:21.393Z,3.50
2023-02-15T14:59:18.820Z,3.50
2023-02-15T15:02:00.007Z,3.60
2023-02-15T15:04:32.811Z,3.50
2023-02-15T15:07:07.875Z,3.60
2023-02-15T15:09:39.138Z,3.50
2023-02-15T15:12:32.989Z,3.50
2023-02-15T15:15:03.289Z,3.40
2023-02-15T15:17:58.055Z,3.40
2023-02-15T15:20:49.572Z,3.40
2023-02-15T15:23:46.689Z,3.40
2023-02-15T15:26:30.229Z,3.40
2023-02-15T15:29:01.336Z,3.30
2023-02-15T15:31:48.365Z,3.30
2023-02-15T15:35:01.862Z,3.40
2023-02-15T15:38:08.728Z,3.40
2023-02-15T15:41:18.504Z,3.30
2023-02-15T15:44:34.862Z,3.30
2023-02-15T15:48:05.228Z,3.30
2023-02-15T15:50:35.645Z,3.30
2023-02-15T15:53:05.308Z,3.20
2023-02-15T15:55:35.445Z,3.20
2023-02-15T15:58:06.605Z,3.20
2023-02-15T16:00:42.731Z,3.20
2023-02-15T16:03:18.089Z,3.20
2023-02-15T16:05:46.270Z,3.20
2023-02-15T16:08:15.374Z,3.20
2023-02-15T16:10:43.737Z,3.10
2023-02-15T16:13:15.851Z,3.10
2023-02-15T16:15:50.536Z,3.10
2023-02-15T16:18:25.266Z,3.10
2023-02-15T16:20:56.511Z,3.10
2023-02-15T16:24:03.065Z,3.10
2023-02-15T16:26:51.170Z,3.10
2023-02-15T16:29:27.790Z,3.10
2023-02-15T16:32:02.045Z,3.10
2023-02-15T16:34:33.519Z,3.10
2023-02-15T16:37:18.094Z,3.10
2023-02-15T16:39:49.011Z,3.10
2023-02-15T16:42:18.535Z,3.00
2023-02-15T16:44:48.153Z,3.00
2023-02-15T16:47:21.832Z,3.00
2023-02-15T16:49:53.498Z,3.00
2023-02-15T16:52:25.092Z,2.90
2023-02-15T16:54:57.671Z,2.90
2023-02-15T16:57:29.599Z,2.90
2023-02-15T17:00:02.637Z,2.90
2023-02-15T17:02:54.513Z,2.90
2023-02-15T17:05:35.882Z,2.90
2023-02-15T17:08:21.526Z,2.90
2023-02-15T17:11:17.289Z,2.90
2023-02-15T17:14:23.999Z,2.90
2023-02-15T17:16:57.421Z,2.90
2023-02-15T17:19:31.373Z,3.00
2023-02-15T17:22:04.069Z,3.00
2023-02-15T17:24:43.748Z,2.90
2023-02-15T17:27:21.571Z,2.90
2023-02-15T17:29:53.694Z,2.80
2023-02-15T17:32:25.522Z,2.80
2023-02-15T17:35:04.253Z,2.70
2023-02-15T17:37:45.488Z,2.60
2023-02-15T17:40:32.063Z,2.50
2023-02-15T17:43:00.282Z,2.50
2023-02-15T17:45:34.428Z,2.50
2023-02-15T17:48:23.940Z,2.50
2023-02-15T17:50:56.084Z,2.50
2023-02-15T17:53:26.985Z,2.50
2023-02-15T17:55:57.652Z,2.50
2023-02-15T17:58:26.056Z,2.50
2023-02-15T18:01:18.268Z,2.40
2023-02-15T18:04:06.909Z,2.40
2023-02-15T18:07:01.955Z,2.40
2023-02-15T18:09:49.135Z,2.40
2023-02-15T18:12:24.928Z,2.40
2023-02-15T18:14:54.251Z,2.40
2023-02-15T18:17:28.550Z,2.40
2023-02-15T18:20:01.469Z,2.40
2023-02-15T18:22:37.344Z,2.40
2023-02-15T18:25:19.598Z,2.40
2023-02-15T18:27:47.896Z,2.40
2023-02-15T18:30:21.180Z,2.40
2023-02-15T18:32:52.064Z,2.40
2023-02-15T18:35:27.988Z,2.40
2023-02-15T18:37:58.337Z,2.40
2023-02-15T18:40:30.213Z,2.40
2023-02-15T18:42:59.658Z,2.40
2023-02-15T18:45:33.142Z,2.30
2023-02-15T18:48:01.993Z,2.30
2023-02-15T18:50:34.118Z,2.30
2023-02-15T18:53:04.838Z,2.30
2023-02-15T18:55:35.753Z,2.30
2023-02-15T18:58:04.370Z,2.30
2023-02-15T19:00:34.757Z,2.30
2023-02-15T19:03:04.175Z,2.30
2023-02-15T19:05:34.051Z,2.30
2023-02-15T19:08:04.168Z,2.30
2023-02-15T19:10:34.981Z,2.20
2023-02-15T19:13:03.440Z,2.20
2023-02-15T19:15:32.286Z,2.20
2023-02-15T19:18:00.646Z,2.30
2023-02-15T19:20:32.265Z,2.30
2023-02-15T19:23:02.922Z,2.20
2023-02-15T19:25:37.746Z,2.30
2023-02-15T19:28:13.413Z,2.30
2023-02-15T19:30:41.692Z,2.30
2023-02-15T19:33:18.320Z,2.20
2023-02-15T19:35:48.751Z,2.20
2023-02-15T19:38:21.218Z,2.20
2023-02-15T19:40:51.564Z,2.20
2023-02-15T19:43:26.232Z,2.20
2023-02-15T19:45:57.871Z,2.20
2023-02-15T19:48:26.152Z,2.20
2023-02-15T19:50:56.994Z,2.20
2023-02-15T19:53:28.842Z,2.20
2023-02-15T19:55:58.773Z,2.30
2023-02-15T19:58:28.532Z,2.30
2023-02-15T20:00:57.394Z,2.30
2023-02-15T20:03:26.131Z,2.30
2023-02-15T20:05:54.812Z,2.30
2023-02-15T20:08:24.588Z,2.40
2023-02-15T20:10:53.090Z,2.40
2023-02-15T20:13:30.764Z,2.30
2023-02-15T20:16:01.367Z,2.40
2023-02-15T20:18:29.913Z,2.30
2023-02-15T20:20:58.656Z,2.40
2023-02-15T20:23:31.746Z,2.30
2023-02-15T20:26:02.435Z,2.30
2023-02-15T20:28:33.364Z,2.30
2023-02-15T20:31:02.148Z,2.30
2023-02-15T20:33:30.820Z,2.30
2023-02-15T20:36:02.986Z,2.30
2023-02-15T20:38:34.417Z,2.40
2023-02-15T20:41:20.088Z,2.40
2023-02-15T20:43:49.707Z,2.40
2023-02-15T20:46:18.154Z,2.40
2023-02-15T20:48:46.794Z,2.40
2023-02-15T20:51:18.645Z,2.40
2023-02-15T20:53:47.248Z,2.40
2023-02-15T20:56:20.483Z,2.50
2023-02-15T20:58:50.826Z,2.50
2023-02-15T21:01:20.170Z,2.40
2023-02-15T21:03:48.921Z,2.40
2023-02-15T21:06:18.527Z,2.40
2023-02-15T21:08:47.021Z,2.40
2023-02-15T21:11:21.293Z,2.40
2023-02-15T21:13:52.032Z,2.30
2023-02-15T21:16:20.369Z,2.30
2023-02-15T21:18:48.889Z,2.20
2023-02-15T21:21:24.873Z,2.20
2023-02-15T21:23:54.108Z,2.10
2023-02-15T21:26:23.941Z,2.10
2023-02-15T21:28:55.115Z,2.00
2023-02-15T21:31:26.244Z,2.00
2023-02-15T21:33:54.603Z,2.00
2023-02-15T21:36:25.198Z,1.90
2023-02-15T21:38:54.226Z,1.90
2023-02-15T21:41:41.826Z,1.90
2023-02-15T21:44:36.199Z,1.80
2023-02-15T21:47:23.568Z,1.80
2023-02-15T21:49:52.970Z,1.80
2023-02-15T21:52:23.529Z,1.70
2023-02-15T21:54:51.828Z,1.70
2023-02-15T21:57:22.276Z,1.70
2023-02-15T21:59:52.230Z,1.70
2023-02-15T22:02:29.783Z,1.60
2023-02-15T22:04:59.288Z,1.60
2023-02-15T22:07:27.526Z,1.60
2023-02-15T22:09:55.745Z,1.50
2023-02-15T22:12:23.996Z,1.50
2023-02-15T22:14:54.579Z,1.50
2023-02-15T22:17:25.681Z,1.40
2023-02-15T22:19:54.125Z,1.40
2023-02-15T22:22:22.397Z,1.40
2023-02-15T22:24:50.863Z,1.30
2023-02-15T22:27:22.127Z,1.30
2023-02-15T22:29:50.892Z,1.30
2023-02-15T22:32:22.691Z,1.30
2023-02-15T22:34:51.456Z,1.20
2023-02-15T22:37:19.630Z,1.10
2023-02-15T22:39:47.922Z,1.00
2023-02-15T22:42:25.583Z,1.00
2023-02-15T22:44:54.738Z,1.10
2023-02-15T22:47:26.505Z,1.10
2023-02-15T22:49:55.564Z,1.10
2023-02-15T22:52:23.785Z,1.00
2023-02-15T22:54:51.878Z,1.00
2023-02-15T22:57:24.352Z,1.00
2023-02-15T22:59:52.643Z,1.00
2023-02-15T23:02:20.762Z,0.90
2023-02-15T23:04:50.431Z,1.00
2023-02-15T23:07:19.861Z,0.90
2023-02-15T23:09:48.144Z,0.90
2023-02-15T23:12:26.296Z,0.90
2023-02-15T23:14:54.778Z,0.80
2023-02-15T23:17:23.046Z,0.70
2023-02-15T23:19:52.507Z,0.80
2023-02-15T23:22:20.835Z,0.80
2023-02-15T23:24:53.343Z,0.70
2023-02-15T23:27:39.056Z,0.70
2023-02-15T23:30:13.038Z,0.70
2023-02-15T23:32:41.247Z,0.70
2023-02-15T23:35:15.488Z,0.70
2023-02-15T23:37:43.638Z,0.70
2023-02-15T23:40:33.601Z,0.70
2023-02-15T23:43:02.027Z,0.60
2023-02-15T23:45:30.452Z,0.60
2023-02-15T23:48:15.209Z,0.60
2023-02-15T23:50:45.875Z,0.60
2023-02-15T23:53:14.067Z,0.60
2023-02-15T23:55:45.278Z,0.60
2023-02-15T23:58:18.101Z,0.60
